createdAt,value
2022-12-20T00:01:24.931Z,2.39
2022-12-20T00:03:53.739Z,2.32
2022-12-20T00:06:21.604Z,2.31
2022-12-20T00:08:56.525Z,2.33
2022-12-20T00:11:23.776Z,2.32
2022-12-20T00:13:50.630Z,2.33
2022-12-20T00:16:22.556Z,2.27
2022-12-20T00:18:52.667Z,2.19
2022-12-20T00:21:19.321Z,2.16
2022-12-20T00:23:46.073Z,2.17
2022-12-20T00:26:15.167Z,2.16
2022-12-20T00:28:43.233Z,2.21
2022-12-20T00:31:11.016Z,2.23
2022-12-20T00:33:38.756Z,2.21
2022-12-20T00:36:06.666Z,2.29
2022-12-20T00:38:33.855Z,2.21
2022-12-20T00:41:05.878Z,2.25
2022-12-20T00:43:32.988Z,2.34
2022-12-20T00:45:59.801Z,2.43
2022-12-20T00:48:27.423Z,2.43
2022-12-20T00:51:01.451Z,2.48
2022-12-20T00:53:28.806Z,2.45
2022-12-20T00:55:55.638Z,2.43
2022-12-20T00:58:22.430Z,2.38
2022-12-20T01:00:55.819Z,2.35
2022-12-20T01:03:23.308Z,2.32
2022-12-20T01:05:57.935Z,2.30
2022-12-20T01:08:25.313Z,2.32
2022-12-20T01:11:02.299Z,2.26
2022-12-20T01:13:29.678Z,2.30
2022-12-20T01:15:56.577Z,2.33
2022-12-20T01:18:23.425Z,2.27
2022-12-20T01:20:50.191Z,2.24
2022-12-20T01:23:16.920Z,2.20
2022-12-20T01:25:43.637Z,2.21
2022-12-20T01:28:10.473Z,2.17
2022-12-20T01:30:40.896Z,2.20
2022-12-20T01:33:07.629Z,2.22
2022-12-20T01:35:34.609Z,2.23
2022-12-20T01:38:01.268Z,2.12
2022-12-20T01:40:28.132Z,2.19
2022-12-20T01:42:55.132Z,2.20
2022-12-20T01:45:28.149Z,2.34
2022-12-20T01:47:55.543Z,2.31
2022-12-20T01:50:22.341Z,2.25
2022-12-20T01:52:49.303Z,2.29
2022-12-20T01:55:25.522Z,2.19
2022-12-20T01:58:00.360Z,2.27
2022-12-20T02:00:27.170Z,2.20
2022-12-20T02:02:54.901Z,2.29
2022-12-20T02:05:23.133Z,2.26
2022-12-20T02:07:52.382Z,2.15
2022-12-20T02:10:20.997Z,2.21
2022-12-20T02:12:49.011Z,2.22
2022-12-20T02:15:54.669Z,2.26
2022-12-20T02:18:28.397Z,2.38
2022-12-20T02:21:05.668Z,2.43
2022-12-20T02:23:58.589Z,2.55
2022-12-20T02:27:01.041Z,2.71
2022-12-20T02:29:39.534Z,2.76
2022-12-20T02:32:29.162Z,2.78
2022-12-20T02:34:55.940Z,2.79
2022-12-20T02:37:22.697Z,2.74
2022-12-20T02:39:49.701Z,2.71
2022-12-20T02:42:21.136Z,2.72
2022-12-20T02:45:12.020Z,2.73
2022-12-20T02:47:51.380Z,2.78
2022-12-20T02:50:31.426Z,2.76
2022-12-20T02:52:59.345Z,2.74
2022-12-20T02:55:39.943Z,2.74
2022-12-20T02:58:12.081Z,2.76
2022-12-20T03:00:42.130Z,2.71
2022-12-20T03:03:24.756Z,2.73
2022-12-20T03:05:57.955Z,2.89
2022-12-20T03:08:25.708Z,2.85
2022-12-20T03:10:54.441Z,2.71
2022-12-20T03:13:23.007Z,2.71
2022-12-20T03:15:49.768Z,2.69
2022-12-20T03:18:16.544Z,2.66
2022-12-20T03:20:44.139Z,2.58
2022-12-20T03:23:10.954Z,2.54
2022-12-20T03:25:37.806Z,2.55
2022-12-20T03:28:04.915Z,2.55
2022-12-20T03:30:31.894Z,2.46
2022-12-20T03:32:58.835Z,2.55
2022-12-20T03:35:25.600Z,2.53
2022-12-20T03:37:52.439Z,2.61
2022-12-20T03:40:19.637Z,2.59
2022-12-20T03:42:46.515Z,2.69
2022-12-20T03:45:13.594Z,2.67
2022-12-20T03:47:40.475Z,2.65
2022-12-20T03:50:07.883Z,2.62
2022-12-20T03:52:35.018Z,2.55
2022-12-20T03:55:02.078Z,2.52
2022-12-20T03:57:29.358Z,2.55
2022-12-20T03:59:56.444Z,2.54
2022-12-20T04:02:23.711Z,2.49
2022-12-20T04:04:51.147Z,2.51
2022-12-20T04:07:18.522Z,2.44
2022-12-20T04:09:45.322Z,2.45
2022-12-20T04:12:12.384Z,2.32
2022-12-20T04:14:39.251Z,2.33
2022-12-20T04:17:06.163Z,2.39
2022-12-20T04:19:33.270Z,2.34
2022-12-20T04:22:05.121Z,2.38
2022-12-20T04:24:32.697Z,2.28
2022-12-20T04:26:59.433Z,2.31
2022-12-20T04:29:26.178Z,2.38
2022-12-20T04:31:53.053Z,2.33
2022-12-20T04:34:19.998Z,2.34
2022-12-20T04:36:46.881Z,2.31
2022-12-20T04:39:13.678Z,2.37
2022-12-20T04:41:40.748Z,2.34
2022-12-20T04:44:07.509Z,2.32
2022-12-20T04:46:34.254Z,2.28
2022-12-20T04:49:01.109Z,2.32
2022-12-20T04:51:28.646Z,2.38
2022-12-20T04:53:56.117Z,2.38
2022-12-20T04:56:28.691Z,2.43
2022-12-20T04:58:58.147Z,2.50
2022-12-20T05:01:25.455Z,2.53
2022-12-20T05:03:53.130Z,2.61
2022-12-20T05:06:20.085Z,2.62
2022-12-20T05:08:47.326Z,2.64
2022-12-20T05:11:14.406Z,2.73
2022-12-20T05:13:41.420Z,2.76
2022-12-20T05:16:08.426Z,2.73
2022-12-20T05:18:35.420Z,2.86
2022-12-20T05:21:21.377Z,2.93
2022-12-20T05:24:07.243Z,2.90
2022-12-20T05:26:37.206Z,2.98
2022-12-20T05:29:04.857Z,3.00
2022-12-20T05:31:32.152Z,3.00
2022-12-20T05:33:59.093Z,2.98
2022-12-20T05:36:26.024Z,2.99
2022-12-20T05:38:55.521Z,2.98
2022-12-20T05:41:26.786Z,2.96
2022-12-20T05:43:53.886Z,2.99
2022-12-20T05:46:20.987Z,2.93
2022-12-20T05:48:47.857Z,2.91
2022-12-20T05:51:14.651Z,2.94
2022-12-20T05:53:41.489Z,2.95
2022-12-20T05:56:08.562Z,3.00
2022-12-20T05:58:35.358Z,2.95
2022-12-20T06:01:03.890Z,3.03
2022-12-20T06:03:31.335Z,2.95
2022-12-20T06:05:58.374Z,2.93
2022-12-20T06:08:25.349Z,2.83
2022-12-20T06:10:52.384Z,2.89
2022-12-20T06:13:19.444Z,2.97
2022-12-20T06:15:46.962Z,2.85
2022-12-20T06:18:14.091Z,2.85
2022-12-20T06:20:41.215Z,2.78
2022-12-20T06:23:09.907Z,2.73
2022-12-20T06:25:38.377Z,2.79
2022-12-20T06:28:06.028Z,2.71
2022-12-20T06:30:34.201Z,2.72
2022-12-20T06:33:01.818Z,2.65
2022-12-20T06:35:29.480Z,2.72
2022-12-20T06:37:56.499Z,2.66
2022-12-20T06:40:23.414Z,2.57
2022-12-20T06:42:53.068Z,2.68
2022-12-20T06:45:19.791Z,2.73
2022-12-20T06:47:46.602Z,2.65
2022-12-20T06:50:13.722Z,2.70
2022-12-20T06:52:40.581Z,2.69
2022-12-20T06:55:07.816Z,2.71
2022-12-20T06:57:34.774Z,2.63
2022-12-20T07:00:01.578Z,2.68
2022-12-20T07:02:29.139Z,2.68
2022-12-20T07:04:55.986Z,2.66
2022-12-20T07:07:23.345Z,2.69
2022-12-20T07:09:50.068Z,2.71
2022-12-20T07:12:17.119Z,2.68
2022-12-20T07:14:43.988Z,2.58
2022-12-20T07:17:11.963Z,2.62
2022-12-20T07:19:38.889Z,2.59
2022-12-20T07:22:06.136Z,2.68
2022-12-20T07:24:34.175Z,2.63
2022-12-20T07:27:01.672Z,2.65
2022-12-20T07:29:28.779Z,2.76
2022-12-20T07:31:55.740Z,2.75
2022-12-20T07:34:22.690Z,2.78
2022-12-20T07:36:49.647Z,2.71
2022-12-20T07:39:16.897Z,2.72
2022-12-20T07:41:43.823Z,2.65
2022-12-20T07:44:10.649Z,2.61
2022-12-20T07:46:37.500Z,2.54
2022-12-20T07:49:06.026Z,2.66
2022-12-20T07:51:38.746Z,2.64
2022-12-20T07:54:14.174Z,2.56
2022-12-20T07:56:47.332Z,2.62
2022-12-20T07:59:19.007Z,2.64
2022-12-20T08:01:46.291Z,2.61
2022-12-20T08:04:17.594Z,2.60
2022-12-20T08:06:44.692Z,2.70
2022-12-20T08:09:14.842Z,2.78
2022-12-20T08:11:44.193Z,2.79
2022-12-20T08:14:11.536Z,2.88
2022-12-20T08:16:38.503Z,2.88
2022-12-20T08:19:05.383Z,2.88
2022-12-20T08:21:32.192Z,2.94
2022-12-20T08:23:59.266Z,2.99
2022-12-20T08:26:26.620Z,2.91
2022-12-20T08:28:54.821Z,2.94
2022-12-20T08:31:22.076Z,2.93
2022-12-20T08:33:48.949Z,2.93
2022-12-20T08:36:15.802Z,2.96
2022-12-20T08:38:42.658Z,2.97
2022-12-20T08:41:12.292Z,3.21
2022-12-20T08:43:39.811Z,3.13
2022-12-20T08:46:07.852Z,3.09
2022-12-20T08:48:34.857Z,3.07
2022-12-20T08:51:03.989Z,3.13
2022-12-20T08:53:31.723Z,3.15
2022-12-20T08:56:25.087Z,3.28
2022-12-20T08:58:51.963Z,3.29
2022-12-20T09:01:20.863Z,3.34
2022-12-20T09:03:48.611Z,3.32
2022-12-20T09:06:18.983Z,3.38
2022-12-20T09:08:45.917Z,3.36
2022-12-20T09:11:18.551Z,3.40
2022-12-20T09:13:46.813Z,3.55
2022-12-20T09:16:16.444Z,3.65
2022-12-20T09:18:43.547Z,3.72
2022-12-20T09:21:11.423Z,3.94
2022-12-20T09:23:38.673Z,4.03
2022-12-20T09:26:11.246Z,4.08
2022-12-20T09:28:38.162Z,4.06
2022-12-20T09:31:09.537Z,3.98
2022-12-20T09:33:36.762Z,3.99
2022-12-20T09:36:04.477Z,3.92
2022-12-20T09:38:32.755Z,4.03
2022-12-20T09:41:05.592Z,3.95
2022-12-20T09:43:32.876Z,3.91
2022-12-20T09:46:02.144Z,3.93
2022-12-20T09:48:35.724Z,3.92
2022-12-20T09:51:32.191Z,3.94
2022-12-20T09:54:31.247Z,3.89
2022-12-20T09:57:24.269Z,3.90
2022-12-20T09:59:51.009Z,3.83
2022-12-20T10:05:18.155Z,3.86
2022-12-20T10:08:01.640Z,3.87
2022-12-20T10:10:57.409Z,3.82
2022-12-20T10:13:27.895Z,3.85
2022-12-20T10:16:08.096Z,3.89
2022-12-20T10:18:46.619Z,3.91
2022-12-20T10:21:48.399Z,3.94
2022-12-20T10:24:26.225Z,3.95
2022-12-20T10:26:53.284Z,3.97
2022-12-20T10:29:21.453Z,4.00
2022-12-20T10:31:59.752Z,4.15
2022-12-20T10:34:31.613Z,4.17
2022-12-20T10:37:13.195Z,4.24
2022-12-20T10:39:44.842Z,4.32
2022-12-20T10:42:28.935Z,4.34
2022-12-20T10:44:56.320Z,4.45
2022-12-20T10:47:38.649Z,4.41
2022-12-20T10:50:15.029Z,4.39
2022-12-20T10:52:42.546Z,4.46
2022-12-20T10:55:35.823Z,4.49
2022-12-20T10:58:06.204Z,4.53
2022-12-20T11:00:34.038Z,4.56
2022-12-20T11:03:13.099Z,4.53
2022-12-20T11:05:40.423Z,4.52
2022-12-20T11:11:22.316Z,4.52
2022-12-20T11:13:50.092Z,4.52
2022-12-20T11:16:38.299Z,4.61
2022-12-20T11:19:31.876Z,4.60
2022-12-20T11:22:35.012Z,4.60
2022-12-20T11:25:12.762Z,4.63
2022-12-20T11:28:12.864Z,4.64
2022-12-20T11:30:42.178Z,4.58
2022-12-20T11:33:46.994Z,4.65
2022-12-20T11:36:56.528Z,4.66
2022-12-20T11:39:43.739Z,4.66
2022-12-20T11:42:15.088Z,4.69
2022-12-20T11:45:09.594Z,4.67
2022-12-20T11:48:13.340Z,4.68
2022-12-20T11:50:49.617Z,4.69
2022-12-20T11:53:32.162Z,4.74
2022-12-20T11:56:02.992Z,4.73
2022-12-20T11:58:46.576Z,4.74
2022-12-20T12:01:17.488Z,4.71
2022-12-20T12:04:04.791Z,4.71
2022-12-20T12:06:41.580Z,4.72
2022-12-20T12:09:42.778Z,4.73
2022-12-20T12:12:15.352Z,4.73
2022-12-20T12:15:15.943Z,4.71
2022-12-20T12:17:51.934Z,4.74
2022-12-20T12:20:30.439Z,4.72
2022-12-20T12:23:20.647Z,4.70
2022-12-20T12:25:47.521Z,4.70
2022-12-20T12:28:14.828Z,4.67
2022-12-20T12:30:45.459Z,4.63
2022-12-20T12:33:25.818Z,4.59
2022-12-20T12:36:15.557Z,4.66
2022-12-20T12:39:14.378Z,4.51
2022-12-20T12:42:03.429Z,4.48
2022-12-20T12:44:39.803Z,4.51
2022-12-20T12:47:12.988Z,4.49
2022-12-20T12:49:40.665Z,4.48
2022-12-20T12:52:07.488Z,4.49
2022-12-20T12:54:40.356Z,4.52
2022-12-20T12:57:15.573Z,4.48
2022-12-20T12:59:48.981Z,4.51
2022-12-20T13:02:27.693Z,4.57
2022-12-20T13:05:02.218Z,4.64
2022-12-20T13:07:47.149Z,4.75
2022-12-20T13:10:36.993Z,4.61
2022-12-20T13:13:13.890Z,4.61
2022-12-20T13:15:51.922Z,4.62
2022-12-20T13:18:28.240Z,4.60
2022-12-20T13:21:33.454Z,4.61
2022-12-20T13:24:18.969Z,4.69
2022-12-20T13:26:52.268Z,4.76
2022-12-20T13:29:34.059Z,4.74
2022-12-20T13:32:01.583Z,4.70
2022-12-20T13:34:56.293Z,4.66
2022-12-20T13:37:56.046Z,4.57
2022-12-20T13:40:49.851Z,4.87
2022-12-20T13:43:36.717Z,5.13
2022-12-20T13:46:42.577Z,4.87
2022-12-20T13:49:12.518Z,4.73
2022-12-20T13:51:39.376Z,4.71
2022-12-20T13:54:08.847Z,4.72
2022-12-20T13:56:51.860Z,4.77
2022-12-20T13:59:36.463Z,4.72
2022-12-20T14:02:09.757Z,4.72
2022-12-20T14:04:43.074Z,4.72
2022-12-20T14:07:13.404Z,4.84
2022-12-20T14:09:40.150Z,4.80
2022-12-20T14:12:12.730Z,4.72
2022-12-20T14:14:43.785Z,4.66
2022-12-20T14:17:31.460Z,4.67
2022-12-20T14:20:17.464Z,4.68
2022-12-20T14:23:06.274Z,4.64
2022-12-20T14:25:58.776Z,4.61
2022-12-20T14:28:41.993Z,4.61
2022-12-20T14:31:22.743Z,4.66
2022-12-20T14:33:50.643Z,4.63
2022-12-20T14:36:20.786Z,4.60
2022-12-20T14:38:50.061Z,4.60
2022-12-20T14:41:40.257Z,4.56
2022-12-20T14:44:17.773Z,4.56
2022-12-20T14:46:56.452Z,4.51
2022-12-20T14:49:49.719Z,4.77
2022-12-20T14:52:18.410Z,4.72
2022-12-20T14:57:46.080Z,4.59
2022-12-20T15:00:14.818Z,4.54
2022-12-20T15:03:18.810Z,4.50
2022-12-20T15:05:48.023Z,4.62
2022-12-20T15:08:27.680Z,4.63
2022-12-20T15:11:24.425Z,4.53
2022-12-20T15:13:53.592Z,4.39
2022-12-20T15:16:24.305Z,4.25
2022-12-20T15:18:56.105Z,4.44
2022-12-20T15:21:35.769Z,4.41
2022-12-20T15:24:08.053Z,4.32
2022-12-20T15:26:35.657Z,4.25
2022-12-20T15:29:02.464Z,4.13
2022-12-20T15:31:33.769Z,4.17
2022-12-20T15:34:04.239Z,4.12
2022-12-20T15:36:31.172Z,4.25
2022-12-20T15:39:15.209Z,4.13
2022-12-20T15:41:46.610Z,3.99
2022-12-20T15:44:25.152Z,3.97
2022-12-20T15:46:52.544Z,3.97
2022-12-20T15:49:24.771Z,4.06
2022-12-20T15:51:53.591Z,3.94
2022-12-20T15:54:46.770Z,3.93
2022-12-20T15:57:14.553Z,3.90
2022-12-20T15:59:59.966Z,3.70
2022-12-20T16:02:29.670Z,3.65
2022-12-20T16:04:56.641Z,3.67
2022-12-20T16:07:23.803Z,3.63
2022-12-20T16:09:50.598Z,3.61
2022-12-20T16:12:25.097Z,3.49
2022-12-20T16:14:52.078Z,3.47
2022-12-20T16:17:18.827Z,3.38
2022-12-20T16:19:46.272Z,3.33
2022-12-20T16:22:18.555Z,3.40
2022-12-20T16:24:45.974Z,3.27
2022-12-20T16:27:13.036Z,3.25
2022-12-20T16:29:39.729Z,3.32
2022-12-20T16:32:15.206Z,3.27
2022-12-20T16:34:41.896Z,3.23
2022-12-20T16:37:08.697Z,3.23
2022-12-20T16:39:35.550Z,3.30
2022-12-20T16:42:02.265Z,3.29
2022-12-20T16:44:28.925Z,3.22
2022-12-20T16:46:56.044Z,3.22
2022-12-20T16:49:22.831Z,3.16
2022-12-20T16:51:49.851Z,3.26
2022-12-20T16:54:21.011Z,3.34
2022-12-20T16:56:52.207Z,3.28
2022-12-20T16:59:21.168Z,3.28
2022-12-20T17:01:50.550Z,3.28
2022-12-20T17:04:19.060Z,3.22
2022-12-20T17:06:47.007Z,3.18
2022-12-20T17:09:14.180Z,3.05
2022-12-20T17:11:40.842Z,3.06
2022-12-20T17:14:12.524Z,3.07
2022-12-20T17:16:40.520Z,3.20
2022-12-20T17:19:07.302Z,3.30
2022-12-20T17:24:25.750Z,3.33
2022-12-20T17:26:52.585Z,3.39
2022-12-20T17:29:20.657Z,3.34
2022-12-20T17:31:48.489Z,3.33
2022-12-20T17:34:26.490Z,3.34
2022-12-20T17:36:55.115Z,3.31
2022-12-20T17:39:22.601Z,3.34
2022-12-20T17:41:52.407Z,3.34
2022-12-20T17:44:24.351Z,3.36
2022-12-20T17:46:51.820Z,3.35
2022-12-20T17:49:19.179Z,3.32
2022-12-20T17:51:46.927Z,3.30
2022-12-20T17:54:18.912Z,3.43
2022-12-20T17:56:46.416Z,3.52
2022-12-20T17:59:14.122Z,3.47
2022-12-20T18:01:41.723Z,3.44
2022-12-20T18:04:10.605Z,3.41
2022-12-20T18:06:39.181Z,3.40
2022-12-20T18:09:10.803Z,3.40
2022-12-20T18:11:37.564Z,3.37
2022-12-20T18:14:04.241Z,3.41
2022-12-20T18:16:32.496Z,3.38
2022-12-20T18:18:59.424Z,3.36
2022-12-20T18:21:26.904Z,3.33
2022-12-20T18:23:54.796Z,3.31
2022-12-20T18:26:26.966Z,3.35
2022-12-20T18:28:57.285Z,3.35
2022-12-20T18:31:26.077Z,3.40
2022-12-20T18:33:58.031Z,3.36
2022-12-20T18:36:27.701Z,3.46
2022-12-20T18:38:54.913Z,3.39
2022-12-20T18:41:26.480Z,3.44
2022-12-20T18:43:54.523Z,3.42
2022-12-20T18:46:23.025Z,3.40
2022-12-20T18:48:56.788Z,3.43
2022-12-20T18:51:29.440Z,3.37
2022-12-20T18:53:57.572Z,3.39
2022-12-20T18:56:29.361Z,3.32
2022-12-20T18:58:56.236Z,3.30
2022-12-20T19:01:25.557Z,3.27
2022-12-20T19:03:53.390Z,3.26
2022-12-20T19:06:21.072Z,3.29
2022-12-20T19:08:51.499Z,3.35
2022-12-20T19:11:20.814Z,3.39
2022-12-20T19:13:48.082Z,3.40
2022-12-20T19:16:30.602Z,3.38
2022-12-20T19:18:59.069Z,3.40
2022-12-20T19:21:27.977Z,3.46
2022-12-20T19:23:56.968Z,3.35
2022-12-20T19:26:30.533Z,3.35
2022-12-20T19:28:57.776Z,3.38
2022-12-20T19:31:27.562Z,3.40
2022-12-20T19:34:00.526Z,3.53
2022-12-20T19:36:32.586Z,3.45
2022-12-20T19:39:00.989Z,3.54
2022-12-20T19:41:30.196Z,3.55
2022-12-20T19:43:57.087Z,3.48
2022-12-20T19:46:29.421Z,3.47
2022-12-20T19:48:58.675Z,3.51
2022-12-20T19:51:26.710Z,3.42
2022-12-20T19:53:54.439Z,3.45
2022-12-20T19:56:34.548Z,3.44
2022-12-20T19:59:01.762Z,3.47
2022-12-20T20:01:29.230Z,3.40
2022-12-20T20:03:58.547Z,3.36
2022-12-20T20:06:26.559Z,3.46
2022-12-20T20:08:53.600Z,3.38
2022-12-20T20:11:21.558Z,3.35
2022-12-20T20:13:48.530Z,3.34
2022-12-20T20:16:22.503Z,3.38
2022-12-20T20:18:50.719Z,3.46
2022-12-20T20:21:21.696Z,3.46
2022-12-20T20:23:50.158Z,3.49
2022-12-20T20:26:19.730Z,3.59
2022-12-20T20:28:46.588Z,3.51
2022-12-20T20:31:15.776Z,3.53
2022-12-20T20:33:43.559Z,3.59
2022-12-20T20:36:13.309Z,3.55
2022-12-20T20:38:40.445Z,3.56
2022-12-20T20:41:07.172Z,3.55
2022-12-20T20:43:37.993Z,3.55
2022-12-20T20:46:06.238Z,3.59
2022-12-20T20:48:33.455Z,3.57
2022-12-20T20:51:00.217Z,3.56
2022-12-20T20:53:33.036Z,3.59
2022-12-20T20:56:01.205Z,3.57
2022-12-20T20:58:27.859Z,3.59
2022-12-20T21:00:59.282Z,3.48
2022-12-20T21:03:27.625Z,3.57
2022-12-20T21:08:41.674Z,3.50
2022-12-20T21:11:09.335Z,3.58
2022-12-20T21:13:36.352Z,3.57
2022-12-20T21:16:08.112Z,3.55
2022-12-20T21:18:35.414Z,3.49
2022-12-20T21:21:07.200Z,3.52
2022-12-20T21:23:34.197Z,3.51
2022-12-20T21:26:01.199Z,3.51
2022-12-20T21:28:28.130Z,3.47
2022-12-20T21:31:03.175Z,3.54
2022-12-20T21:33:30.052Z,3.57
2022-12-20T21:36:14.073Z,3.58
2022-12-20T21:38:41.007Z,3.57
2022-12-20T21:41:12.299Z,3.61
2022-12-20T21:43:39.506Z,3.57
2022-12-20T21:46:11.514Z,3.59
2022-12-20T21:48:39.389Z,3.51
2022-12-20T21:51:10.296Z,3.54
2022-12-20T21:53:48.516Z,3.59
2022-12-20T21:56:18.646Z,3.64
2022-12-20T21:58:45.529Z,3.68
2022-12-20T22:01:14.463Z,3.62
2022-12-20T22:03:41.335Z,3.64
2022-12-20T22:06:08.262Z,3.63
2022-12-20T22:08:34.950Z,3.60
2022-12-20T22:11:05.727Z,3.64
2022-12-20T22:13:40.453Z,3.68
2022-12-20T22:16:12.981Z,3.64
2022-12-20T22:18:40.769Z,3.64
2022-12-20T22:21:13.167Z,3.66
2022-12-20T22:23:40.779Z,3.67
2022-12-20T22:26:14.304Z,3.76
2022-12-20T22:28:47.093Z,3.81
2022-12-20T22:31:14.620Z,3.81
2022-12-20T22:33:41.827Z,3.81
2022-12-20T22:36:09.613Z,3.86
2022-12-20T22:38:36.374Z,3.86
2022-12-20T22:41:14.747Z,3.89
2022-12-20T22:43:41.973Z,3.84
2022-12-20T22:46:10.889Z,3.82
2022-12-20T22:48:37.949Z,4.01
2022-12-20T22:51:16.478Z,4.13
2022-12-20T22:53:43.864Z,3.98
2022-12-20T22:56:11.398Z,3.91
2022-12-20T22:58:38.862Z,3.83
2022-12-20T23:01:08.737Z,3.89
2022-12-20T23:03:36.504Z,3.92
2022-12-20T23:06:05.237Z,3.94
2022-12-20T23:08:34.759Z,3.98
2022-12-20T23:11:20.115Z,3.97
2022-12-20T23:14:05.420Z,3.95
2022-12-20T23:16:32.309Z,4.11
2022-12-20T23:19:01.288Z,4.05
2022-12-20T23:21:47.723Z,4.01
2022-12-20T23:24:15.490Z,4.01
2022-12-20T23:26:43.038Z,3.95
2022-12-20T23:29:10.769Z,4.02
2022-12-20T23:31:37.594Z,4.03
2022-12-20T23:34:04.718Z,4.05
2022-12-20T23:36:33.448Z,4.06
2022-12-20T23:39:00.315Z,4.12
2022-12-20T23:41:27.199Z,4.13
2022-12-20T23:43:54.008Z,4.11
2022-12-20T23:46:22.102Z,4.00
2022-12-20T23:48:50.991Z,4.06
2022-12-20T23:51:18.197Z,4.13
2022-12-20T23:53:45.188Z,4.19
2022-12-20T23:56:17.130Z,4.19
2022-12-20T23:58:45.022Z,4.18
